createdAt,value
2023-04-16T00:02:08.492Z,59.82
2023-04-16T00:04:35.870Z,59.83
2023-04-16T00:07:03.235Z,59.87
2023-04-16T00:09:30.266Z,59.79
2023-04-16T00:11:57.216Z,59.82
2023-04-16T00:14:24.360Z,59.88
2023-04-16T00:16:51.596Z,60.04
2023-04-16T00:19:18.568Z,60.33
2023-04-16T00:21:45.521Z,60.26
2023-04-16T00:24:12.597Z,60.34
2023-04-16T00:26:41.049Z,60.15
2023-04-16T00:29:08.384Z,60.17
2023-04-16T00:31:35.764Z,60.09
2023-04-16T00:34:03.610Z,60.14
2023-04-16T00:36:30.572Z,59.90
2023-04-16T00:38:58.105Z,59.89
2023-04-16T00:41:25.097Z,59.87
2023-04-16T00:43:52.290Z,60.11
2023-04-16T00:46:25.184Z,59.92
2023-04-16T00:48:54.050Z,60.07
2023-04-16T00:51:21.880Z,59.90
2023-04-16T00:53:48.947Z,60.10
2023-04-16T00:56:17.695Z,59.97
2023-04-16T00:58:45.067Z,60.00
2023-04-16T01:01:14.443Z,60.09
2023-04-16T01:03:46.561Z,60.05
2023-04-16T01:06:14.399Z,59.91
2023-04-16T01:08:41.442Z,60.05
2023-04-16T01:11:08.951Z,59.84
2023-04-16T01:13:39.425Z,59.84
2023-04-16T01:16:10.825Z,59.97
2023-04-16T01:18:38.688Z,59.91
2023-04-16T01:21:06.792Z,59.80
2023-04-16T01:23:33.808Z,59.92
2023-04-16T01:26:01.096Z,59.79
2023-04-16T01:28:28.322Z,59.89
2023-04-16T01:30:55.180Z,59.75
2023-04-16T01:33:34.116Z,59.80
2023-04-16T01:36:01.119Z,59.88
2023-04-16T01:38:28.180Z,59.93
2023-04-16T01:40:59.663Z,59.83
2023-04-16T01:43:26.779Z,59.77
2023-04-16T01:46:11.430Z,59.89
2023-04-16T01:48:38.368Z,59.83
2023-04-16T01:51:05.608Z,59.63
2023-04-16T01:53:32.631Z,59.72
2023-04-16T01:55:59.689Z,59.72
2023-04-16T01:58:29.810Z,59.64
2023-04-16T02:00:56.899Z,59.71
2023-04-16T02:03:25.037Z,59.81
2023-04-16T02:05:53.217Z,59.84
2023-04-16T02:08:20.544Z,60.00
2023-04-16T02:10:48.228Z,59.77
2023-04-16T02:13:15.940Z,59.90
2023-04-16T02:15:47.486Z,59.74
2023-04-16T02:18:15.815Z,59.63
2023-04-16T02:20:43.934Z,59.71
2023-04-16T02:23:12.002Z,59.51
2023-04-16T02:25:43.299Z,59.60
2023-04-16T02:28:12.855Z,59.53
2023-04-16T02:30:42.527Z,59.61
2023-04-16T02:33:11.207Z,59.53
2023-04-16T02:35:40.751Z,59.61
2023-04-16T02:38:08.736Z,59.53
2023-04-16T02:40:36.177Z,59.58
2023-04-16T02:43:03.188Z,59.64
2023-04-16T02:45:31.775Z,59.52
2023-04-16T02:47:58.825Z,59.64
2023-04-16T02:50:25.953Z,59.63
2023-04-16T02:52:52.901Z,59.80
2023-04-16T02:55:19.913Z,59.71
2023-04-16T02:57:47.200Z,59.78
2023-04-16T03:00:14.423Z,59.71
2023-04-16T03:02:42.694Z,59.78
2023-04-16T03:05:10.672Z,59.73
2023-04-16T03:07:39.458Z,59.74
2023-04-16T03:10:07.706Z,59.77
2023-04-16T03:12:35.702Z,59.73
2023-04-16T03:15:02.874Z,59.78
2023-04-16T03:17:30.273Z,60.02
2023-04-16T03:19:57.360Z,60.03
2023-04-16T03:22:24.910Z,59.89
2023-04-16T03:24:51.865Z,60.01
2023-04-16T03:27:18.799Z,60.03
2023-04-16T03:29:46.066Z,60.24
2023-04-16T03:32:13.311Z,60.59
2023-04-16T03:34:40.561Z,60.79
2023-04-16T03:37:09.241Z,60.66
2023-04-16T03:39:36.207Z,60.68
2023-04-16T03:42:04.365Z,60.50
2023-04-16T03:44:31.260Z,60.52
2023-04-16T03:46:58.315Z,60.52
2023-04-16T03:49:25.598Z,60.53
2023-04-16T03:51:52.662Z,60.49
2023-04-16T03:54:22.023Z,60.39
2023-04-16T03:56:52.589Z,60.61
2023-04-16T03:59:19.637Z,60.54
2023-04-16T04:01:46.943Z,60.69
2023-04-16T04:04:14.256Z,60.71
2023-04-16T04:06:42.440Z,60.69
2023-04-16T04:09:09.682Z,60.85
2023-04-16T04:11:37.024Z,60.83
2023-04-16T04:14:05.504Z,60.64
2023-04-16T04:16:32.928Z,60.74
2023-04-16T04:19:00.720Z,60.95
2023-04-16T04:21:29.104Z,60.88
2023-04-16T04:23:56.278Z,60.99
2023-04-16T04:26:23.613Z,60.95
2023-04-16T04:28:51.070Z,61.36
2023-04-16T04:31:18.498Z,61.46
2023-04-16T04:33:45.572Z,61.38
2023-04-16T04:36:12.825Z,61.20
2023-04-16T04:38:40.692Z,61.10
2023-04-16T04:41:07.836Z,61.07
2023-04-16T04:43:36.940Z,61.09
2023-04-16T04:46:04.027Z,61.03
2023-04-16T04:48:31.537Z,61.10
2023-04-16T04:50:58.813Z,61.09
2023-04-16T04:53:25.734Z,61.07
2023-04-16T04:55:55.649Z,61.07
2023-04-16T04:58:25.874Z,61.13
2023-04-16T05:00:53.159Z,61.17
2023-04-16T05:03:22.109Z,61.06
2023-04-16T05:05:49.274Z,61.20
2023-04-16T05:08:16.332Z,61.21
2023-04-16T05:10:43.259Z,61.21
2023-04-16T05:13:10.303Z,61.32
2023-04-16T05:15:38.329Z,61.15
2023-04-16T05:18:05.355Z,61.09
2023-04-16T05:20:32.791Z,61.42
2023-04-16T05:22:59.725Z,61.54
2023-04-16T05:25:26.679Z,61.60
2023-04-16T05:27:53.736Z,61.44
2023-04-16T05:30:20.870Z,60.99
2023-04-16T05:32:48.055Z,60.53
2023-04-16T05:35:17.218Z,60.36
2023-04-16T05:37:44.559Z,60.02
2023-04-16T05:40:13.936Z,59.89
2023-04-16T05:42:41.277Z,59.67
2023-04-16T05:45:08.989Z,59.65
2023-04-16T05:47:36.161Z,59.49
2023-04-16T05:50:03.185Z,59.45
2023-04-16T05:52:30.131Z,59.26
2023-04-16T05:54:58.404Z,59.25
2023-04-16T05:57:25.554Z,59.10
2023-04-16T05:59:53.214Z,59.28
2023-04-16T06:02:20.974Z,59.02
2023-04-16T06:04:48.141Z,59.04
2023-04-16T06:07:15.088Z,59.08
2023-04-16T06:09:42.736Z,58.99
2023-04-16T06:12:09.918Z,58.92
2023-04-16T06:14:36.943Z,58.69
2023-04-16T06:17:03.992Z,58.83
2023-04-16T06:19:31.035Z,58.72
2023-04-16T06:21:58.282Z,58.68
2023-04-16T06:24:25.228Z,58.70
2023-04-16T06:26:52.292Z,58.59
2023-04-16T06:29:19.317Z,58.59
2023-04-16T06:31:46.313Z,58.61
2023-04-16T06:34:13.533Z,58.42
2023-04-16T06:36:40.568Z,58.37
2023-04-16T06:39:07.915Z,58.43
2023-04-16T06:41:35.025Z,58.39
2023-04-16T06:44:02.392Z,58.42
2023-04-16T06:46:29.469Z,58.28
2023-04-16T06:48:56.520Z,58.10
2023-04-16T06:51:23.509Z,58.12
2023-04-16T06:53:50.519Z,58.16
2023-04-16T06:56:17.456Z,58.24
2023-04-16T06:58:44.395Z,58.08
2023-04-16T07:01:11.619Z,58.12
2023-04-16T07:03:38.949Z,57.99
2023-04-16T07:06:06.034Z,58.16
2023-04-16T07:08:32.966Z,58.25
2023-04-16T07:11:00.248Z,58.12
2023-04-16T07:13:27.839Z,58.30
2023-04-16T07:15:55.062Z,58.04
2023-04-16T07:18:22.012Z,58.03
2023-04-16T07:20:49.157Z,57.97
2023-04-16T07:23:16.017Z,58.06
2023-04-16T07:25:43.048Z,57.96
2023-04-16T07:28:10.196Z,58.04
2023-04-16T07:30:37.512Z,58.04
2023-04-16T07:33:04.932Z,57.94
2023-04-16T07:35:32.567Z,57.94
2023-04-16T07:37:59.613Z,57.94
2023-04-16T07:40:26.918Z,57.83
2023-04-16T07:42:55.383Z,57.95
2023-04-16T07:45:22.348Z,57.90
2023-04-16T07:47:49.343Z,57.89
2023-04-16T07:50:16.592Z,57.91
2023-04-16T07:52:45.495Z,57.94
2023-04-16T07:55:12.631Z,57.77
2023-04-16T07:57:41.111Z,57.88
2023-04-16T08:00:09.352Z,57.81
2023-04-16T08:02:44.932Z,57.88
2023-04-16T08:05:13.726Z,57.89
2023-04-16T08:07:40.886Z,58.08
2023-04-16T08:10:10.647Z,57.91
2023-04-16T08:12:38.148Z,57.98
2023-04-16T08:15:06.400Z,57.98
2023-04-16T08:17:34.633Z,57.79
2023-04-16T08:20:08.023Z,57.85
2023-04-16T08:22:34.992Z,57.74
2023-04-16T08:25:03.393Z,57.81
2023-04-16T08:27:30.257Z,57.73
2023-04-16T08:29:57.312Z,57.79
2023-04-16T08:32:24.280Z,57.81
2023-04-16T08:34:51.454Z,57.79
2023-04-16T08:37:18.752Z,57.66
2023-04-16T08:39:45.813Z,57.60
2023-04-16T08:42:53.300Z,57.59
2023-04-16T08:45:20.612Z,57.76
2023-04-16T08:47:52.146Z,57.62
2023-04-16T08:50:26.849Z,57.67
2023-04-16T08:52:59.299Z,57.82
2023-04-16T08:55:36.447Z,57.56
2023-04-16T08:58:09.086Z,57.69
2023-04-16T09:00:37.956Z,57.63
2023-04-16T09:03:05.543Z,57.62
2023-04-16T09:05:33.725Z,57.75
2023-04-16T09:08:00.720Z,57.50
2023-04-16T09:10:27.863Z,57.63
2023-04-16T09:12:57.312Z,57.50
2023-04-16T09:15:28.366Z,57.43
2023-04-16T09:17:57.120Z,57.34
2023-04-16T09:20:24.106Z,57.45
2023-04-16T09:22:51.018Z,57.25
2023-04-16T09:25:20.754Z,57.35
2023-04-16T09:27:50.147Z,57.29
2023-04-16T09:30:25.828Z,57.24
2023-04-16T09:33:11.971Z,57.26
2023-04-16T09:35:49.229Z,57.08
2023-04-16T09:38:16.922Z,57.04
2023-04-16T09:40:44.164Z,56.93
2023-04-16T09:43:16.032Z,56.98
2023-04-16T09:45:53.835Z,56.95
2023-04-16T09:48:34.302Z,56.65
2023-04-16T09:51:01.847Z,56.76
2023-04-16T09:53:31.476Z,56.64
2023-04-16T09:56:03.653Z,56.64
2023-04-16T09:58:30.818Z,56.55
2023-04-16T10:01:08.689Z,56.60
2023-04-16T10:03:38.190Z,56.34
2023-04-16T10:06:14.959Z,56.36
2023-04-16T10:09:00.176Z,56.29
2023-04-16T10:11:27.276Z,56.34
2023-04-16T10:13:54.310Z,56.24
2023-04-16T10:16:23.126Z,56.32
2023-04-16T10:18:51.659Z,56.15
2023-04-16T10:21:19.456Z,56.35
2023-04-16T10:23:46.926Z,56.36
2023-04-16T10:26:14.028Z,56.20
2023-04-16T10:28:41.839Z,56.04
2023-04-16T10:31:10.133Z,55.66
2023-04-16T10:33:40.958Z,55.39
2023-04-16T10:36:12.179Z,55.33
2023-04-16T10:38:41.579Z,55.33
2023-04-16T10:41:11.546Z,55.03
2023-04-16T10:43:47.934Z,55.40
2023-04-16T10:46:23.400Z,55.49
2023-04-16T10:48:53.822Z,55.75
2023-04-16T10:51:38.876Z,55.87
2023-04-16T10:54:12.748Z,55.67
2023-04-16T10:56:39.641Z,55.63
2023-04-16T10:59:12.030Z,55.58
2023-04-16T11:01:47.577Z,55.45
2023-04-16T11:04:20.763Z,55.22
2023-04-16T11:07:08.673Z,55.41
2023-04-16T11:09:47.057Z,55.38
2023-04-16T11:12:19.633Z,55.32
2023-04-16T11:14:52.051Z,55.68
2023-04-16T11:17:20.202Z,55.52
2023-04-16T11:19:47.766Z,55.62
2023-04-16T11:22:17.582Z,55.53
2023-04-16T11:24:48.136Z,55.54
2023-04-16T11:27:16.224Z,55.54
2023-04-16T11:29:45.082Z,55.74
2023-04-16T11:32:22.429Z,55.46
2023-04-16T11:34:49.479Z,55.59
2023-04-16T11:37:32.231Z,55.52
2023-04-16T11:39:59.243Z,55.66
2023-04-16T11:42:28.521Z,55.54
2023-04-16T11:44:57.500Z,55.70
2023-04-16T11:47:25.160Z,55.65
2023-04-16T11:49:52.159Z,55.67
2023-04-16T11:52:31.575Z,55.54
2023-04-16T11:54:59.612Z,55.38
2023-04-16T11:57:29.984Z,55.39
2023-04-16T12:00:01.743Z,55.48
2023-04-16T12:02:42.121Z,55.30
2023-04-16T12:05:31.860Z,55.57
2023-04-16T12:08:00.789Z,55.43
2023-04-16T12:10:28.645Z,55.49
2023-04-16T12:13:10.051Z,55.41
2023-04-16T12:15:50.382Z,55.40
2023-04-16T12:18:18.541Z,55.53
2023-04-16T12:20:46.706Z,55.56
2023-04-16T12:23:30.281Z,55.39
2023-04-16T12:26:02.823Z,55.35
2023-04-16T12:28:36.125Z,55.37
2023-04-16T12:31:03.800Z,55.35
2023-04-16T12:33:31.229Z,55.53
2023-04-16T12:35:58.818Z,55.39
2023-04-16T12:38:26.908Z,55.37
2023-04-16T12:40:57.229Z,55.39
2023-04-16T12:43:25.204Z,55.43
2023-04-16T12:45:52.187Z,55.37
2023-04-16T12:48:19.102Z,55.39
2023-04-16T12:50:46.344Z,55.36
2023-04-16T12:53:13.341Z,55.26
2023-04-16T12:55:40.208Z,55.23
2023-04-16T12:58:07.376Z,55.04
2023-04-16T13:00:34.222Z,55.15
2023-04-16T13:03:01.290Z,54.94
2023-04-16T13:05:28.385Z,54.99
2023-04-16T13:07:55.877Z,54.95
2023-04-16T13:10:23.688Z,54.99
2023-04-16T13:12:50.741Z,54.87
2023-04-16T13:15:17.668Z,54.99
2023-04-16T13:17:45.039Z,54.84
2023-04-16T13:20:12.126Z,55.05
2023-04-16T13:22:39.365Z,54.87
2023-04-16T13:25:06.857Z,54.93
2023-04-16T13:27:33.857Z,54.85
2023-04-16T13:30:00.738Z,54.87
2023-04-16T13:32:27.755Z,54.78
2023-04-16T13:34:54.723Z,54.84
2023-04-16T13:37:21.645Z,54.83
2023-04-16T13:39:48.569Z,54.70
2023-04-16T13:42:15.857Z,54.81
2023-04-16T13:44:42.797Z,54.89
2023-04-16T13:47:09.948Z,54.77
2023-04-16T13:49:36.890Z,54.94
2023-04-16T13:52:04.105Z,54.89
2023-04-16T13:54:31.366Z,54.89
2023-04-16T13:56:58.249Z,54.82
2023-04-16T13:59:25.239Z,54.88
2023-04-16T14:01:52.253Z,55.02
2023-04-16T14:04:19.281Z,54.89
2023-04-16T14:06:46.446Z,55.10
2023-04-16T14:09:13.405Z,54.95
2023-04-16T14:11:40.473Z,54.94
2023-04-16T14:14:07.397Z,55.02
2023-04-16T14:16:34.809Z,54.99
2023-04-16T14:19:02.167Z,54.91
2023-04-16T14:21:29.044Z,55.02
2023-04-16T14:23:55.960Z,54.93
2023-04-16T14:26:23.374Z,54.78
2023-04-16T14:28:51.333Z,54.90
2023-04-16T14:31:18.395Z,54.66
2023-04-16T14:33:46.157Z,54.83
2023-04-16T14:36:13.404Z,54.79
2023-04-16T14:38:41.064Z,54.64
2023-04-16T14:41:08.027Z,54.72
2023-04-16T14:43:35.975Z,54.74
2023-04-16T14:46:05.310Z,54.68
2023-04-16T14:48:33.151Z,54.70
2023-04-16T14:51:00.125Z,54.83
2023-04-16T14:53:27.802Z,54.88
2023-04-16T14:55:54.778Z,54.80
2023-04-16T14:58:22.119Z,54.84
2023-04-16T15:00:49.299Z,54.70
2023-04-16T15:03:16.395Z,54.84
2023-04-16T15:05:43.416Z,54.99
2023-04-16T15:08:10.344Z,54.80
2023-04-16T15:10:37.961Z,54.95
2023-04-16T15:13:05.366Z,54.88
2023-04-16T15:15:32.863Z,54.96
2023-04-16T15:18:00.498Z,55.08
2023-04-16T15:20:27.578Z,54.95
2023-04-16T15:22:54.684Z,54.91
2023-04-16T15:25:21.672Z,55.00
2023-04-16T15:27:48.885Z,54.96
2023-04-16T15:30:16.023Z,55.03
2023-04-16T15:32:44.756Z,55.12
2023-04-16T15:35:13.573Z,55.17
2023-04-16T15:37:41.082Z,55.13
2023-04-16T15:40:08.860Z,55.23
2023-04-16T15:42:35.880Z,54.97
2023-04-16T15:45:02.929Z,55.10
2023-04-16T15:47:29.995Z,55.17
2023-04-16T15:49:56.907Z,55.32
2023-04-16T15:52:23.960Z,55.10
2023-04-16T15:54:51.011Z,55.27
2023-04-16T15:57:17.970Z,55.07
2023-04-16T15:59:59.288Z,55.30
2023-04-16T16:02:32.494Z,55.26
2023-04-16T16:05:00.451Z,55.17
2023-04-16T16:07:27.561Z,55.22
2023-04-16T16:09:54.588Z,55.29
2023-04-16T16:12:21.547Z,55.21
2023-04-16T16:14:48.483Z,55.29
2023-04-16T16:17:15.625Z,55.22
2023-04-16T16:19:45.231Z,55.20
2023-04-16T16:22:13.328Z,55.29
2023-04-16T16:24:40.904Z,55.36
2023-04-16T16:27:07.796Z,55.32
2023-04-16T16:29:34.647Z,55.61
2023-04-16T16:32:01.564Z,55.21
2023-04-16T16:34:28.554Z,55.26
2023-04-16T16:36:56.668Z,55.24
2023-04-16T16:39:25.509Z,55.02
2023-04-16T16:41:53.849Z,54.83
2023-04-16T16:44:21.681Z,54.89
2023-04-16T16:46:50.425Z,54.90
2023-04-16T16:49:18.416Z,54.98
2023-04-16T16:51:46.821Z,54.91
2023-04-16T16:54:14.548Z,54.99
2023-04-16T16:56:41.598Z,54.88
2023-04-16T16:59:09.131Z,54.88
2023-04-16T17:01:36.511Z,54.88
2023-04-16T17:04:04.471Z,54.81
2023-04-16T17:06:32.396Z,54.81
2023-04-16T17:08:59.899Z,55.04
2023-04-16T17:11:27.473Z,55.00
2023-04-16T17:13:54.296Z,55.14
2023-04-16T17:16:21.328Z,55.22
2023-04-16T17:18:48.605Z,54.85
2023-04-16T17:21:16.721Z,54.60
2023-04-16T17:23:43.934Z,54.50
2023-04-16T17:26:11.180Z,54.36
2023-04-16T17:28:38.469Z,54.51
2023-04-16T17:31:08.576Z,54.36
2023-04-16T17:33:35.949Z,54.47
2023-04-16T17:36:02.993Z,54.41
2023-04-16T17:38:29.929Z,54.37
2023-04-16T17:40:58.232Z,54.66
2023-04-16T17:43:26.904Z,54.43
2023-04-16T17:45:53.910Z,54.64
2023-04-16T17:48:20.954Z,54.69
2023-04-16T17:50:48.675Z,54.41
2023-04-16T17:53:15.912Z,54.33
2023-04-16T17:55:53.595Z,54.40
2023-04-16T17:58:22.248Z,54.30
2023-04-16T18:00:49.162Z,54.44
2023-04-16T18:03:16.229Z,54.28
2023-04-16T18:05:43.264Z,54.40
2023-04-16T18:08:10.229Z,54.18
2023-04-16T18:10:38.930Z,54.22
2023-04-16T18:13:05.917Z,54.18
2023-04-16T18:15:37.040Z,54.22
2023-04-16T18:18:04.972Z,54.16
2023-04-16T18:20:32.196Z,54.06
2023-04-16T18:22:59.238Z,54.05
2023-04-16T18:25:33.662Z,54.08
2023-04-16T18:28:01.951Z,54.01
2023-04-16T18:30:29.559Z,54.10
2023-04-16T18:33:25.513Z,54.07
2023-04-16T18:35:43.487Z,54.01
2023-04-16T18:38:10.509Z,53.91
2023-04-16T18:40:37.777Z,54.02
2023-04-16T18:43:05.074Z,53.83
2023-04-16T18:45:34.403Z,53.96
2023-04-16T18:48:03.634Z,54.03
2023-04-16T18:50:30.517Z,53.86
2023-04-16T18:52:57.788Z,53.78
2023-04-16T18:55:24.830Z,53.88
2023-04-16T18:57:55.333Z,53.81
2023-04-16T19:00:22.322Z,53.92
2023-04-16T19:02:49.263Z,54.07
2023-04-16T19:05:16.276Z,54.23
2023-04-16T19:07:43.220Z,54.24
2023-04-16T19:10:10.322Z,54.38
2023-04-16T19:12:37.223Z,54.54
2023-04-16T19:15:05.257Z,54.66
2023-04-16T19:17:32.229Z,54.70
2023-04-16T19:19:59.413Z,54.74
2023-04-16T19:22:26.401Z,54.94
2023-04-16T19:24:54.747Z,55.01
2023-04-16T19:27:21.696Z,55.12
2023-04-16T19:29:48.540Z,55.27
2023-04-16T19:32:15.860Z,55.19
2023-04-16T19:34:42.684Z,55.42
2023-04-16T19:37:09.607Z,55.42
2023-04-16T19:39:36.620Z,55.54
2023-04-16T19:42:03.759Z,55.53
2023-04-16T19:44:32.467Z,55.44
2023-04-16T19:46:59.966Z,55.61
2023-04-16T19:49:34.325Z,55.80
2023-04-16T19:52:01.507Z,55.90
2023-04-16T19:54:28.906Z,55.93
2023-04-16T19:56:57.406Z,55.91
2023-04-16T19:59:25.210Z,56.13
2023-04-16T20:01:52.130Z,56.09
2023-04-16T20:04:19.193Z,56.13
2023-04-16T20:06:46.676Z,56.15
2023-04-16T20:09:13.693Z,56.29
2023-04-16T20:11:40.659Z,56.22
2023-04-16T20:14:07.551Z,56.52
2023-04-16T20:16:35.228Z,56.67
2023-04-16T20:19:04.684Z,56.50
2023-04-16T20:21:33.394Z,56.66
2023-04-16T20:24:00.707Z,56.65
2023-04-16T20:26:34.349Z,56.79
2023-04-16T20:29:01.272Z,56.94
2023-04-16T20:31:29.014Z,56.82
2023-04-16T20:33:56.030Z,56.82
2023-04-16T20:36:22.999Z,56.87
2023-04-16T20:38:51.490Z,56.73
2023-04-16T20:41:22.738Z,56.81
2023-04-16T20:43:50.359Z,56.98
2023-04-16T20:46:17.863Z,56.89
2023-04-16T20:48:45.112Z,56.86
2023-04-16T20:51:12.380Z,56.95
2023-04-16T20:53:39.388Z,56.97
2023-04-16T20:56:07.114Z,57.18
2023-04-16T20:58:34.404Z,57.12
2023-04-16T21:01:02.090Z,57.37
2023-04-16T21:03:29.153Z,57.30
2023-04-16T21:05:56.176Z,57.37
2023-04-16T21:08:24.090Z,57.34
2023-04-16T21:10:51.390Z,57.45
2023-04-16T21:13:19.087Z,57.38
2023-04-16T21:15:46.572Z,57.55
2023-04-16T21:18:13.706Z,57.24
2023-04-16T21:20:40.652Z,57.42
2023-04-16T21:23:07.554Z,57.21
2023-04-16T21:25:35.858Z,57.18
2023-04-16T21:28:02.932Z,57.25
2023-04-16T21:30:29.918Z,57.24
2023-04-16T21:32:56.892Z,57.24
2023-04-16T21:35:23.874Z,57.37
2023-04-16T21:37:50.910Z,57.47
2023-04-16T21:40:17.983Z,57.32
2023-04-16T21:42:44.882Z,57.47
2023-04-16T21:45:11.956Z,57.35
2023-04-16T21:47:39.077Z,57.41
2023-04-16T21:50:06.502Z,57.31
2023-04-16T21:52:40.608Z,57.34
2023-04-16T21:55:09.621Z,57.42
2023-04-16T21:57:36.761Z,57.49
2023-04-16T22:00:09.236Z,57.31
2023-04-16T22:02:36.263Z,57.38
2023-04-16T22:05:03.800Z,57.65
2023-04-16T22:07:31.178Z,57.62
2023-04-16T22:09:58.074Z,57.54
2023-04-16T22:12:25.076Z,57.38
2023-04-16T22:15:01.992Z,57.52
2023-04-16T22:17:30.414Z,57.50
2023-04-16T22:20:00.594Z,57.35
2023-04-16T22:22:27.743Z,57.38
2023-04-16T22:24:54.635Z,57.46
2023-04-16T22:27:21.847Z,57.38
2023-04-16T22:29:48.829Z,57.35
2023-04-16T22:32:17.468Z,57.41
2023-04-16T22:34:45.121Z,57.45
2023-04-16T22:37:12.162Z,57.58
2023-04-16T22:39:39.426Z,57.68
2023-04-16T22:42:08.514Z,57.58
2023-04-16T22:44:37.113Z,57.58
2023-04-16T22:47:04.202Z,57.63
2023-04-16T22:49:36.020Z,57.67
2023-04-16T22:52:03.470Z,57.71
2023-04-16T22:54:31.382Z,57.65
2023-04-16T22:56:59.352Z,57.65
2023-04-16T22:59:26.492Z,57.74
2023-04-16T23:01:53.558Z,57.69
2023-04-16T23:04:20.567Z,57.74
2023-04-16T23:06:47.448Z,57.70
2023-04-16T23:09:14.529Z,57.77
2023-04-16T23:11:41.675Z,57.75
2023-04-16T23:14:08.544Z,58.05
2023-04-16T23:16:35.593Z,57.90
2023-04-16T23:19:02.526Z,57.90
2023-04-16T23:21:29.794Z,57.78
2023-04-16T23:23:57.543Z,57.85
2023-04-16T23:26:24.484Z,57.96
2023-04-16T23:28:51.650Z,57.90
2023-04-16T23:31:18.654Z,57.86
2023-04-16T23:33:45.520Z,57.72
2023-04-16T23:36:12.558Z,57.84
2023-04-16T23:38:39.502Z,57.89
2023-04-16T23:41:06.659Z,57.80
2023-04-16T23:43:34.933Z,58.04
2023-04-16T23:46:04.806Z,58.16
2023-04-16T23:48:31.845Z,58.07
2023-04-16T23:50:58.898Z,58.37
2023-04-16T23:53:25.934Z,58.50
2023-04-16T23:55:53.585Z,58.44
2023-04-16T23:58:20.684Z,58.62
